sensor_id;sensor_type;location;lat;lon;timestamp;pressure;altitude;pressure_sealevel;temperature;humidity
60267;BME280;46125;61.360;-149.532;2022-10-16T00:01:08;98021.20;;;3.15;53.67
60267;BME280;46125;61.360;-149.532;2022-10-16T00:03:37;98017.56;;;2.65;53.75
60267;BME280;46125;61.360;-149.532;2022-10-16T00:06:06;98008.36;;;2.56;55.31
60267;BME280;46125;61.360;-149.532;2022-10-16T00:08:35;98017.63;;;3.19;54.35
60267;BME280;46125;61.360;-149.532;2022-10-16T00:11:06;98020.88;;;2.84;54.20
60267;BME280;46125;61.360;-149.532;2022-10-16T00:13:35;98010.79;;;3.78;52.53
60267;BME280;46125;61.360;-149.532;2022-10-16T00:16:05;98013.23;;;3.91;52.34
60267;BME280;46125;61.360;-149.532;2022-10-16T00:18:33;98025.87;;;3.50;52.87
60267;BME280;46125;61.360;-149.532;2022-10-16T00:21:04;98036.24;;;4.09;51.71
60267;BME280;46125;61.360;-149.532;2022-10-16T00:23:34;98036.32;;;4.19;50.98
60267;BME280;46125;61.360;-149.532;2022-10-16T00:26:04;98031.84;;;4.26;50.15
60267;BME280;46125;61.360;-149.532;2022-10-16T00:28:33;98030.08;;;4.05;50.32
60267;BME280;46125;61.360;-149.532;2022-10-16T00:31:04;98032.07;;;3.86;50.89
60267;BME280;46125;61.360;-149.532;2022-10-16T00:33:33;98021.55;;;3.23;51.44
60267;BME280;46125;61.360;-149.532;2022-10-16T00:36:04;98030.05;;;3.49;51.04
60267;BME280;46125;61.360;-149.532;2022-10-16T00:38:34;98038.50;;;4.08;50.29
60267;BME280;46125;61.360;-149.532;2022-10-16T00:41:03;98033.78;;;4.60;48.54
60267;BME280;46125;61.360;-149.532;2022-10-16T00:43:39;98022.05;;;4.29;48.96
60267;BME280;46125;61.360;-149.532;2022-10-16T00:46:16;98025.80;;;3.91;50.07
60267;BME280;46125;61.360;-149.532;2022-10-16T00:48:50;98024.68;;;4.00;50.09
60267;BME280;46125;61.360;-149.532;2022-10-16T00:51:23;98027.41;;;3.28;51.42
60267;BME280;46125;61.360;-149.532;2022-10-16T00:53:52;98023.39;;;3.32;51.30
60267;BME280;46125;61.360;-149.532;2022-10-16T00:56:20;98031.56;;;3.51;51.11
60267;BME280;46125;61.360;-149.532;2022-10-16T00:58:49;98033.18;;;3.24;52.16
60267;BME280;46125;61.360;-149.532;2022-10-16T01:01:18;98025.40;;;3.89;50.86
60267;BME280;46125;61.360;-149.532;2022-10-16T01:03:46;98032.81;;;4.16;50.14
60267;BME280;46125;61.360;-149.532;2022-10-16T01:06:23;98030.85;;;4.21;49.11
60267;BME280;46125;61.360;-149.532;2022-10-16T01:09:29;98017.36;;;4.72;48.79
60267;BME280;46125;61.360;-149.532;2022-10-16T01:12:05;98004.33;;;4.18;49.84
60267;BME280;46125;61.360;-149.532;2022-10-16T01:14:43;98010.42;;;5.33;47.08
60267;BME280;46125;61.360;-149.532;2022-10-16T01:17:19;98004.33;;;5.64;45.75
60267;BME280;46125;61.360;-149.532;2022-10-16T01:20:04;98010.75;;;6.10;44.51
60267;BME280;46125;61.360;-149.532;2022-10-16T01:22:40;97999.40;;;6.22;43.32
60267;BME280;46125;61.360;-149.532;2022-10-16T01:25:21;97996.92;;;6.60;43.21
60267;BME280;46125;61.360;-149.532;2022-10-16T01:27:53;98002.43;;;6.10;43.14
60267;BME280;46125;61.360;-149.532;2022-10-16T01:30:25;98011.09;;;6.54;43.27
60267;BME280;46125;61.360;-149.532;2022-10-16T01:32:57;98022.53;;;6.24;44.35
60267;BME280;46125;61.360;-149.532;2022-10-16T01:35:29;98021.09;;;6.14;44.49
60267;BME280;46125;61.360;-149.532;2022-10-16T01:38:03;98024.94;;;6.16;44.41
60267;BME280;46125;61.360;-149.532;2022-10-16T01:40:33;98025.43;;;6.12;44.43
60267;BME280;46125;61.360;-149.532;2022-10-16T01:43:06;98026.70;;;5.93;45.32
60267;BME280;46125;61.360;-149.532;2022-10-16T01:45:37;98035.25;;;5.63;45.98
60267;BME280;46125;61.360;-149.532;2022-10-16T01:48:07;98033.82;;;5.68;45.92
60267;BME280;46125;61.360;-149.532;2022-10-16T01:50:39;98034.84;;;5.76;45.69
60267;BME280;46125;61.360;-149.532;2022-10-16T01:53:11;98034.61;;;5.71;45.52
60267;BME280;46125;61.360;-149.532;2022-10-16T01:55:43;98036.14;;;6.39;45.22
60267;BME280;46125;61.360;-149.532;2022-10-16T01:58:14;98026.03;;;5.94;44.98
60267;BME280;46125;61.360;-149.532;2022-10-16T02:00:44;98022.53;;;6.06;44.55
60267;BME280;46125;61.360;-149.532;2022-10-16T02:03:17;98015.69;;;4.59;47.81
60267;BME280;46125;61.360;-149.532;2022-10-16T02:05:49;98011.37;;;5.41;46.21
60267;BME280;46125;61.360;-149.532;2022-10-16T02:08:19;98016.46;;;5.61;45.55
60267;BME280;46125;61.360;-149.532;2022-10-16T02:10:47;98019.86;;;5.78;45.26
60267;BME280;46125;61.360;-149.532;2022-10-16T02:13:19;98022.46;;;6.02;44.86
60267;BME280;46125;61.360;-149.532;2022-10-16T02:15:50;98028.06;;;6.14;44.45
60267;BME280;46125;61.360;-149.532;2022-10-16T02:18:18;98021.49;;;6.08;44.56
60267;BME280;46125;61.360;-149.532;2022-10-16T02:20:53;98009.40;;;6.09;44.39
60267;BME280;46125;61.360;-149.532;2022-10-16T02:23:30;98003.73;;;6.00;43.96
60267;BME280;46125;61.360;-149.532;2022-10-16T02:26:03;98003.57;;;4.45;47.07
60267;BME280;46125;61.360;-149.532;2022-10-16T02:28:38;98009.41;;;5.56;44.94
60267;BME280;46125;61.360;-149.532;2022-10-16T02:31:10;98017.12;;;5.90;44.11
60267;BME280;46125;61.360;-149.532;2022-10-16T02:33:42;98014.20;;;6.09;43.74
60267;BME280;46125;61.360;-149.532;2022-10-16T02:36:12;98006.41;;;6.22;43.37
60267;BME280;46125;61.360;-149.532;2022-10-16T02:38:41;98005.05;;;6.21;43.66
60267;BME280;46125;61.360;-149.532;2022-10-16T02:41:10;97991.08;;;5.94;44.35
60267;BME280;46125;61.360;-149.532;2022-10-16T02:43:39;97981.63;;;5.95;44.20
60267;BME280;46125;61.360;-149.532;2022-10-16T02:46:08;97975.56;;;5.90;43.85
60267;BME280;46125;61.360;-149.532;2022-10-16T02:48:36;97971.14;;;6.01;43.56
60267;BME280;46125;61.360;-149.532;2022-10-16T02:51:05;97978.17;;;6.00;43.53
60267;BME280;46125;61.360;-149.532;2022-10-16T02:53:34;97973.20;;;6.01;43.45
60267;BME280;46125;61.360;-149.532;2022-10-16T02:56:02;97973.28;;;6.04;43.42
60267;BME280;46125;61.360;-149.532;2022-10-16T02:58:31;97966.28;;;6.01;43.55
60267;BME280;46125;61.360;-149.532;2022-10-16T03:00:59;97961.59;;;5.84;43.13
60267;BME280;46125;61.360;-149.532;2022-10-16T03:03:28;97960.49;;;5.95;42.83
60267;BME280;46125;61.360;-149.532;2022-10-16T03:05:56;97965.57;;;5.86;42.88
60267;BME280;46125;61.360;-149.532;2022-10-16T03:08:25;97971.39;;;5.93;42.74
60267;BME280;46125;61.360;-149.532;2022-10-16T03:10:53;97981.38;;;5.80;43.05
60267;BME280;46125;61.360;-149.532;2022-10-16T03:13:22;97987.27;;;5.82;44.29
60267;BME280;46125;61.360;-149.532;2022-10-16T03:15:51;97995.28;;;5.55;44.48
60267;BME280;46125;61.360;-149.532;2022-10-16T03:18:19;97990.57;;;4.83;45.01
60267;BME280;46125;61.360;-149.532;2022-10-16T03:20:48;97990.25;;;4.88;46.59
60267;BME280;46125;61.360;-149.532;2022-10-16T03:23:16;97990.87;;;5.01;46.36
60267;BME280;46125;61.360;-149.532;2022-10-16T03:25:45;97994.99;;;5.08;46.14
60267;BME280;46125;61.360;-149.532;2022-10-16T03:28:14;98003.97;;;4.78;45.71
60267;BME280;46125;61.360;-149.532;2022-10-16T03:30:43;98015.39;;;4.92;46.49
60267;BME280;46125;61.360;-149.532;2022-10-16T03:33:12;98011.75;;;4.76;47.02
60267;BME280;46125;61.360;-149.532;2022-10-16T03:35:40;98003.22;;;4.33;48.13
60267;BME280;46125;61.360;-149.532;2022-10-16T03:38:09;97998.80;;;4.56;47.89
60267;BME280;46125;61.360;-149.532;2022-10-16T03:40:37;97991.45;;;4.91;47.08
60267;BME280;46125;61.360;-149.532;2022-10-16T03:43:06;97989.88;;;4.75;47.44
60267;BME280;46125;61.360;-149.532;2022-10-16T03:45:36;97993.62;;;5.06;47.30
60267;BME280;46125;61.360;-149.532;2022-10-16T03:48:05;97989.51;;;4.93;46.94
60267;BME280;46125;61.360;-149.532;2022-10-16T03:50:33;97991.01;;;5.13;46.55
60267;BME280;46125;61.360;-149.532;2022-10-16T03:53:01;97991.52;;;5.33;46.17
60267;BME280;46125;61.360;-149.532;2022-10-16T03:55:30;97986.36;;;5.18;45.86
60267;BME280;46125;61.360;-149.532;2022-10-16T03:57:59;97988.03;;;5.06;46.29
60267;BME280;46125;61.360;-149.532;2022-10-16T04:00:28;97985.55;;;5.31;46.47
60267;BME280;46125;61.360;-149.532;2022-10-16T04:02:56;97996.76;;;5.40;46.29
60267;BME280;46125;61.360;-149.532;2022-10-16T04:05:25;98005.41;;;5.41;46.51
60267;BME280;46125;61.360;-149.532;2022-10-16T04:07:53;97999.47;;;5.19;46.48
60267;BME280;46125;61.360;-149.532;2022-10-16T04:10:22;97998.24;;;5.44;46.68
60267;BME280;46125;61.360;-149.532;2022-10-16T04:12:51;97999.91;;;5.36;46.65
60267;BME280;46125;61.360;-149.532;2022-10-16T04:15:19;97996.60;;;5.39;46.54
60267;BME280;46125;61.360;-149.532;2022-10-16T04:17:48;97994.97;;;5.22;46.20
60267;BME280;46125;61.360;-149.532;2022-10-16T04:20:17;97998.67;;;5.33;46.31
60267;BME280;46125;61.360;-149.532;2022-10-16T04:22:46;98006.43;;;4.59;48.71
60267;BME280;46125;61.360;-149.532;2022-10-16T04:25:15;98001.67;;;4.77;47.79
60267;BME280;46125;61.360;-149.532;2022-10-16T04:27:43;97994.58;;;4.79;47.09
60267;BME280;46125;61.360;-149.532;2022-10-16T04:30:12;97995.25;;;5.06;47.25
60267;BME280;46125;61.360;-149.532;2022-10-16T04:32:40;98000.99;;;5.19;46.41
60267;BME280;46125;61.360;-149.532;2022-10-16T04:35:09;97998.16;;;5.11;46.00
60267;BME280;46125;61.360;-149.532;2022-10-16T04:37:38;97994.26;;;5.21;45.87
60267;BME280;46125;61.360;-149.532;2022-10-16T04:40:08;97987.20;;;5.50;46.40
60267;BME280;46125;61.360;-149.532;2022-10-16T04:42:37;97987.23;;;5.35;46.96
60267;BME280;46125;61.360;-149.532;2022-10-16T04:45:06;97981.75;;;5.51;46.74
60267;BME280;46125;61.360;-149.532;2022-10-16T04:47:36;97979.86;;;5.44;46.34
60267;BME280;46125;61.360;-149.532;2022-10-16T04:50:06;97979.76;;;5.59;45.96
60267;BME280;46125;61.360;-149.532;2022-10-16T04:52:34;97976.62;;;5.55;45.66
60267;BME280;46125;61.360;-149.532;2022-10-16T04:55:03;97978.76;;;5.45;45.68
60267;BME280;46125;61.360;-149.532;2022-10-16T04:57:32;97984.31;;;5.73;45.26
60267;BME280;46125;61.360;-149.532;2022-10-16T05:00:01;97997.88;;;5.66;45.41
60267;BME280;46125;61.360;-149.532;2022-10-16T05:02:31;98003.52;;;5.54;44.87
60267;BME280;46125;61.360;-149.532;2022-10-16T05:04:59;98006.63;;;5.46;45.89
60267;BME280;46125;61.360;-149.532;2022-10-16T05:07:27;98002.93;;;5.54;45.79
60267;BME280;46125;61.360;-149.532;2022-10-16T05:09:56;97996.87;;;5.74;45.45
60267;BME280;46125;61.360;-149.532;2022-10-16T05:12:24;97994.91;;;5.76;45.44
60267;BME280;46125;61.360;-149.532;2022-10-16T05:14:53;97994.33;;;5.69;45.45
60267;BME280;46125;61.360;-149.532;2022-10-16T05:17:21;98001.68;;;5.90;45.40
60267;BME280;46125;61.360;-149.532;2022-10-16T05:19:50;98002.02;;;5.76;45.17
60267;BME280;46125;61.360;-149.532;2022-10-16T05:22:18;97994.69;;;5.89;44.78
60267;BME280;46125;61.360;-149.532;2022-10-16T05:24:47;97994.75;;;5.82;44.62
60267;BME280;46125;61.360;-149.532;2022-10-16T05:27:16;97987.86;;;5.82;45.98
60267;BME280;46125;61.360;-149.532;2022-10-16T05:29:45;97974.42;;;5.90;46.02
60267;BME280;46125;61.360;-149.532;2022-10-16T05:32:14;97978.59;;;5.48;46.55
60267;BME280;46125;61.360;-149.532;2022-10-16T05:34:43;97981.05;;;4.86;47.66
60267;BME280;46125;61.360;-149.532;2022-10-16T05:37:12;97984.02;;;4.93;46.81
60267;BME280;46125;61.360;-149.532;2022-10-16T05:39:40;97992.92;;;5.65;46.44
60267;BME280;46125;61.360;-149.532;2022-10-16T05:42:08;97995.25;;;5.89;46.19
60267;BME280;46125;61.360;-149.532;2022-10-16T05:44:37;97989.21;;;5.67;46.45
60267;BME280;46125;61.360;-149.532;2022-10-16T05:47:06;97984.50;;;5.61;46.24
60267;BME280;46125;61.360;-149.532;2022-10-16T05:49:35;97978.04;;;5.46;45.88
60267;BME280;46125;61.360;-149.532;2022-10-16T05:52:04;97971.96;;;5.73;45.77
60267;BME280;46125;61.360;-149.532;2022-10-16T05:54:33;97965.55;;;5.65;45.54
60267;BME280;46125;61.360;-149.532;2022-10-16T05:57:01;97968.37;;;4.68;46.81
60267;BME280;46125;61.360;-149.532;2022-10-16T05:59:30;97970.51;;;5.32;46.45
60267;BME280;46125;61.360;-149.532;2022-10-16T06:01:58;97976.19;;;5.41;46.40
60267;BME280;46125;61.360;-149.532;2022-10-16T06:04:26;97981.34;;;5.59;45.73
60267;BME280;46125;61.360;-149.532;2022-10-16T06:06:58;97978.99;;;5.50;46.07
60267;BME280;46125;61.360;-149.532;2022-10-16T06:09:26;97978.74;;;5.68;47.27
60267;BME280;46125;61.360;-149.532;2022-10-16T06:11:55;97986.75;;;5.12;47.38
60267;BME280;46125;61.360;-149.532;2022-10-16T06:14:23;97988.72;;;5.24;47.35
60267;BME280;46125;61.360;-149.532;2022-10-16T06:16:51;97988.96;;;5.22;47.38
60267;BME280;46125;61.360;-149.532;2022-10-16T06:19:20;97986.20;;;5.25;47.56
60267;BME280;46125;61.360;-149.532;2022-10-16T06:21:48;97989.34;;;5.41;46.97
60267;BME280;46125;61.360;-149.532;2022-10-16T06:24:16;97991.43;;;5.17;47.34
60267;BME280;46125;61.360;-149.532;2022-10-16T06:26:45;97987.02;;;5.48;46.68
60267;BME280;46125;61.360;-149.532;2022-10-16T06:29:14;97979.37;;;5.53;47.15
60267;BME280;46125;61.360;-149.532;2022-10-16T06:31:42;97972.55;;;5.71;46.75
60267;BME280;46125;61.360;-149.532;2022-10-16T06:34:11;97968.14;;;5.78;46.74
60267;BME280;46125;61.360;-149.532;2022-10-16T06:36:40;97962.40;;;5.72;46.56
60267;BME280;46125;61.360;-149.532;2022-10-16T06:39:08;97964.52;;;5.78;46.53
60267;BME280;46125;61.360;-149.532;2022-10-16T06:41:36;97970.46;;;5.78;46.71
60267;BME280;46125;61.360;-149.532;2022-10-16T06:44:06;97973.88;;;5.77;46.91
60267;BME280;46125;61.360;-149.532;2022-10-16T06:46:35;97979.26;;;5.74;48.18
60267;BME280;46125;61.360;-149.532;2022-10-16T06:49:04;97977.78;;;5.59;48.02
60267;BME280;46125;61.360;-149.532;2022-10-16T06:51:33;97974.85;;;4.94;50.55
60267;BME280;46125;61.360;-149.532;2022-10-16T06:54:02;97973.30;;;5.76;48.48
60267;BME280;46125;61.360;-149.532;2022-10-16T06:56:31;97972.94;;;5.54;47.96
60267;BME280;46125;61.360;-149.532;2022-10-16T06:59:00;97966.35;;;5.74;48.32
60267;BME280;46125;61.360;-149.532;2022-10-16T07:01:29;97956.93;;;5.69;48.54
60267;BME280;46125;61.360;-149.532;2022-10-16T07:03:58;97955.99;;;5.58;49.12
60267;BME280;46125;61.360;-149.532;2022-10-16T07:06:29;97962.87;;;5.29;49.77
60267;BME280;46125;61.360;-149.532;2022-10-16T07:09:00;97954.80;;;5.23;49.65
60267;BME280;46125;61.360;-149.532;2022-10-16T07:11:29;97944.27;;;5.05;50.12
60267;BME280;46125;61.360;-149.532;2022-10-16T07:13:58;97936.22;;;3.61;53.22
60267;BME280;46125;61.360;-149.532;2022-10-16T07:16:28;97935.20;;;4.71;51.42
60267;BME280;46125;61.360;-149.532;2022-10-16T07:18:57;97932.21;;;4.92;50.71
60267;BME280;46125;61.360;-149.532;2022-10-16T07:21:28;97928.08;;;5.32;49.93
60267;BME280;46125;61.360;-149.532;2022-10-16T07:23:58;97924.93;;;5.11;49.42
60267;BME280;46125;61.360;-149.532;2022-10-16T07:26:31;97919.86;;;5.45;49.10
60267;BME280;46125;61.360;-149.532;2022-10-16T07:29:00;97917.64;;;5.41;49.20
60267;BME280;46125;61.360;-149.532;2022-10-16T07:31:29;97917.96;;;5.67;48.72
60267;BME280;46125;61.360;-149.532;2022-10-16T07:33:58;97915.06;;;5.73;47.92
60267;BME280;46125;61.360;-149.532;2022-10-16T07:36:27;97918.23;;;5.41;47.89
60267;BME280;46125;61.360;-149.532;2022-10-16T07:38:55;97918.43;;;5.35;48.55
60267;BME280;46125;61.360;-149.532;2022-10-16T07:41:24;97920.14;;;4.80;49.88
60267;BME280;46125;61.360;-149.532;2022-10-16T07:43:53;97914.59;;;4.70;51.64
60267;BME280;46125;61.360;-149.532;2022-10-16T07:46:23;97907.75;;;5.64;49.14
60267;BME280;46125;61.360;-149.532;2022-10-16T07:48:51;97901.99;;;5.16;49.14
60267;BME280;46125;61.360;-149.532;2022-10-16T07:51:22;97902.01;;;5.75;48.51
60267;BME280;46125;61.360;-149.532;2022-10-16T07:53:52;97909.59;;;5.66;47.66
60267;BME280;46125;61.360;-149.532;2022-10-16T07:56:21;97919.64;;;5.77;47.33
60267;BME280;46125;61.360;-149.532;2022-10-16T07:58:51;97917.69;;;5.92;47.10
60267;BME280;46125;61.360;-149.532;2022-10-16T08:01:19;97911.97;;;6.06;46.65
60267;BME280;46125;61.360;-149.532;2022-10-16T08:03:50;97906.35;;;5.40;47.66
60267;BME280;46125;61.360;-149.532;2022-10-16T08:06:20;97905.06;;;5.23;48.34
60267;BME280;46125;61.360;-149.532;2022-10-16T08:08:48;97909.84;;;5.74;47.66
60267;BME280;46125;61.360;-149.532;2022-10-16T08:11:17;97920.66;;;5.79;48.21
60267;BME280;46125;61.360;-149.532;2022-10-16T08:13:45;97921.09;;;5.53;50.29
60267;BME280;46125;61.360;-149.532;2022-10-16T08:16:14;97923.84;;;5.08;50.49
60267;BME280;46125;61.360;-149.532;2022-10-16T08:18:42;97918.45;;;5.01;52.20
60267;BME280;46125;61.360;-149.532;2022-10-16T08:21:14;97913.51;;;4.20;54.03
60267;BME280;46125;61.360;-149.532;2022-10-16T08:23:43;97905.67;;;4.61;53.33
60267;BME280;46125;61.360;-149.532;2022-10-16T08:26:12;97897.88;;;4.96;52.67
60267;BME280;46125;61.360;-149.532;2022-10-16T08:28:41;97888.24;;;4.95;52.87
60267;BME280;46125;61.360;-149.532;2022-10-16T08:31:11;97886.22;;;5.02;52.08
60267;BME280;46125;61.360;-149.532;2022-10-16T08:33:41;97891.56;;;5.39;51.71
60267;BME280;46125;61.360;-149.532;2022-10-16T08:36:10;97899.53;;;5.01;52.47
60267;BME280;46125;61.360;-149.532;2022-10-16T08:38:40;97900.44;;;4.60;54.12
60267;BME280;46125;61.360;-149.532;2022-10-16T08:42:59;97916.80;;;4.75;54.75
60267;BME280;46125;61.360;-149.532;2022-10-16T08:45:38;97904.95;;;4.54;54.10
60267;BME280;46125;61.360;-149.532;2022-10-16T08:48:19;97903.58;;;4.21;55.16
60267;BME280;46125;61.360;-149.532;2022-10-16T08:50:50;97908.43;;;4.24;55.74
60267;BME280;46125;61.360;-149.532;2022-10-16T08:53:23;97913.31;;;4.38;55.54
60267;BME280;46125;61.360;-149.532;2022-10-16T08:55:54;97913.56;;;4.63;55.04
60267;BME280;46125;61.360;-149.532;2022-10-16T08:58:26;97917.21;;;4.67;54.49
60267;BME280;46125;61.360;-149.532;2022-10-16T09:00:56;97912.92;;;4.92;53.83
60267;BME280;46125;61.360;-149.532;2022-10-16T09:03:39;97901.43;;;5.20;52.86
60267;BME280;46125;61.360;-149.532;2022-10-16T09:06:26;97897.52;;;5.03;52.93
60267;BME280;46125;61.360;-149.532;2022-10-16T09:09:13;97880.82;;;4.94;52.51
60267;BME280;46125;61.360;-149.532;2022-10-16T09:11:50;97874.70;;;5.32;51.81
60267;BME280;46125;61.360;-149.532;2022-10-16T09:15:10;97869.90;;;5.58;51.53
60267;BME280;46125;61.360;-149.532;2022-10-16T09:17:49;97856.95;;;5.42;51.20
60267;BME280;46125;61.360;-149.532;2022-10-16T09:20:29;97859.94;;;5.65;50.92
60267;BME280;46125;61.360;-149.532;2022-10-16T09:23:14;97853.77;;;5.78;50.58
60267;BME280;46125;61.360;-149.532;2022-10-16T09:25:46;97839.87;;;5.61;50.88
60267;BME280;46125;61.360;-149.532;2022-10-16T09:28:16;97853.08;;;5.57;51.08
60267;BME280;46125;61.360;-149.532;2022-10-16T09:30:45;97863.89;;;6.04;51.09
60267;BME280;46125;61.360;-149.532;2022-10-16T09:33:15;97862.69;;;5.41;51.10
60267;BME280;46125;61.360;-149.532;2022-10-16T09:35:46;97876.05;;;5.83;50.53
60267;BME280;46125;61.360;-149.532;2022-10-16T09:38:27;97868.02;;;4.99;52.42
60267;BME280;46125;61.360;-149.532;2022-10-16T09:40:56;97851.02;;;5.53;51.02
60267;BME280;46125;61.360;-149.532;2022-10-16T09:43:27;97851.55;;;5.53;51.02
60267;BME280;46125;61.360;-149.532;2022-10-16T09:46:01;97848.09;;;5.23;51.79
60267;BME280;46125;61.360;-149.532;2022-10-16T09:48:36;97844.68;;;6.02;51.15
60267;BME280;46125;61.360;-149.532;2022-10-16T09:51:13;97852.41;;;5.69;50.88
60267;BME280;46125;61.360;-149.532;2022-10-16T09:53:45;97856.69;;;6.08;51.10
60267;BME280;46125;61.360;-149.532;2022-10-16T09:56:23;97863.91;;;5.40;51.43
60267;BME280;46125;61.360;-149.532;2022-10-16T09:58:54;97851.56;;;5.38;51.65
60267;BME280;46125;61.360;-149.532;2022-10-16T10:01:30;97839.35;;;5.32;51.41
60267;BME280;46125;61.360;-149.532;2022-10-16T10:03:59;97849.03;;;5.82;50.67
60267;BME280;46125;61.360;-149.532;2022-10-16T10:06:29;97861.54;;;5.75;50.70
60267;BME280;46125;61.360;-149.532;2022-10-16T10:09:01;97861.26;;;5.85;50.61
60267;BME280;46125;61.360;-149.532;2022-10-16T10:11:40;97847.08;;;5.94;50.49
60267;BME280;46125;61.360;-149.532;2022-10-16T10:14:16;97844.10;;;5.45;51.84
60267;BME280;46125;61.360;-149.532;2022-10-16T10:16:46;97849.59;;;5.26;53.26
60267;BME280;46125;61.360;-149.532;2022-10-16T10:19:17;97843.10;;;5.01;53.47
60267;BME280;46125;61.360;-149.532;2022-10-16T10:21:47;97831.17;;;5.33;52.66
60267;BME280;46125;61.360;-149.532;2022-10-16T10:24:18;97824.84;;;5.35;52.04
60267;BME280;46125;61.360;-149.532;2022-10-16T10:26:54;97821.46;;;5.88;51.46
60267;BME280;46125;61.360;-149.532;2022-10-16T10:29:35;97818.76;;;5.80;51.63
60267;BME280;46125;61.360;-149.532;2022-10-16T10:32:21;97804.48;;;5.41;51.53
60267;BME280;46125;61.360;-149.532;2022-10-16T10:35:01;97815.21;;;4.37;54.15
60267;BME280;46125;61.360;-149.532;2022-10-16T10:37:45;97816.71;;;5.42;53.18
60267;BME280;46125;61.360;-149.532;2022-10-16T10:40:33;97804.85;;;5.52;53.08
60267;BME280;46125;61.360;-149.532;2022-10-16T10:43:13;97814.91;;;5.53;52.70
60267;BME280;46125;61.360;-149.532;2022-10-16T10:45:48;97828.17;;;5.66;51.83
60267;BME280;46125;61.360;-149.532;2022-10-16T10:48:40;97823.60;;;5.78;51.42
60267;BME280;46125;61.360;-149.532;2022-10-16T10:51:20;97827.09;;;5.88;51.36
60267;BME280;46125;61.360;-149.532;2022-10-16T10:53:58;97830.27;;;5.86;51.41
60267;BME280;46125;61.360;-149.532;2022-10-16T10:56:44;97827.36;;;6.02;51.29
60267;BME280;46125;61.360;-149.532;2022-10-16T10:59:48;97824.37;;;5.91;51.24
60267;BME280;46125;61.360;-149.532;2022-10-16T11:02:25;97820.28;;;6.01;51.00
60267;BME280;46125;61.360;-149.532;2022-10-16T11:05:08;97823.34;;;5.96;51.13
60267;BME280;46125;61.360;-149.532;2022-10-16T11:07:49;97809.16;;;5.30;51.76
60267;BME280;46125;61.360;-149.532;2022-10-16T11:10:21;97793.51;;;3.63;56.77
60267;BME280;46125;61.360;-149.532;2022-10-16T11:12:55;97795.75;;;2.69;59.42
60267;BME280;46125;61.360;-149.532;2022-10-16T11:15:29;97791.70;;;3.05;59.49
60267;BME280;46125;61.360;-149.532;2022-10-16T11:18:06;97798.17;;;4.10;56.92
60267;BME280;46125;61.360;-149.532;2022-10-16T11:20:40;97810.90;;;3.46;58.72
60267;BME280;46125;61.360;-149.532;2022-10-16T11:23:14;97814.02;;;3.42;58.64
60267;BME280;46125;61.360;-149.532;2022-10-16T11:25:44;97813.22;;;3.95;57.54
60267;BME280;46125;61.360;-149.532;2022-10-16T11:28:17;97824.76;;;3.17;59.09
60267;BME280;46125;61.360;-149.532;2022-10-16T11:30:51;97833.67;;;3.83;58.36
60267;BME280;46125;61.360;-149.532;2022-10-16T11:33:28;97829.42;;;3.52;58.38
60267;BME280;46125;61.360;-149.532;2022-10-16T11:36:06;97821.16;;;3.91;58.28
60267;BME280;46125;61.360;-149.532;2022-10-16T11:38:44;97827.96;;;3.66;58.56
60267;BME280;46125;61.360;-149.532;2022-10-16T11:41:22;97827.42;;;5.09;55.48
60267;BME280;46125;61.360;-149.532;2022-10-16T11:44:01;97820.05;;;4.63;55.11
60267;BME280;46125;61.360;-149.532;2022-10-16T11:46:33;97811.96;;;5.06;54.30
60267;BME280;46125;61.360;-149.532;2022-10-16T11:49:10;97808.22;;;5.04;54.60
60267;BME280;46125;61.360;-149.532;2022-10-16T11:51:45;97808.64;;;2.72;60.04
60267;BME280;46125;61.360;-149.532;2022-10-16T11:54:24;97807.97;;;2.46;61.61
60267;BME280;46125;61.360;-149.532;2022-10-16T11:57:02;97802.09;;;3.28;60.57
60267;BME280;46125;61.360;-149.532;2022-10-16T11:59:39;97785.65;;;2.30;61.79
60267;BME280;46125;61.360;-149.532;2022-10-16T12:02:26;97781.90;;;1.94;63.55
60267;BME280;46125;61.360;-149.532;2022-10-16T12:05:09;97772.54;;;2.05;64.42
60267;BME280;46125;61.360;-149.532;2022-10-16T12:07:46;97776.07;;;1.40;64.86
60267;BME280;46125;61.360;-149.532;2022-10-16T12:10:22;97775.18;;;2.15;63.61
60267;BME280;46125;61.360;-149.532;2022-10-16T12:12:51;97777.53;;;1.85;64.49
60267;BME280;46125;61.360;-149.532;2022-10-16T12:15:23;97781.44;;;0.57;68.51
60267;BME280;46125;61.360;-149.532;2022-10-16T12:17:53;97770.94;;;2.36;64.12
60267;BME280;46125;61.360;-149.532;2022-10-16T12:20:26;97761.85;;;2.59;63.31
60267;BME280;46125;61.360;-149.532;2022-10-16T12:22:57;97757.87;;;2.24;65.69
60267;BME280;46125;61.360;-149.532;2022-10-16T12:25:29;97756.14;;;1.17;68.73
60267;BME280;46125;61.360;-149.532;2022-10-16T12:28:01;97756.32;;;1.15;69.37
60267;BME280;46125;61.360;-149.532;2022-10-16T12:30:32;97758.38;;;1.31;68.95
60267;BME280;46125;61.360;-149.532;2022-10-16T12:33:04;97756.47;;;1.37;67.15
60267;BME280;46125;61.360;-149.532;2022-10-16T12:35:35;97756.61;;;2.37;64.71
60267;BME280;46125;61.360;-149.532;2022-10-16T12:38:17;97754.16;;;2.62;64.08
60267;BME280;46125;61.360;-149.532;2022-10-16T12:40:54;97757.72;;;2.93;62.22
60267;BME280;46125;61.360;-149.532;2022-10-16T12:43:36;97756.91;;;2.87;61.36
60267;BME280;46125;61.360;-149.532;2022-10-16T12:46:22;97757.06;;;1.39;66.43
60267;BME280;46125;61.360;-149.532;2022-10-16T12:48:53;97748.81;;;1.07;69.26
60267;BME280;46125;61.360;-149.532;2022-10-16T12:51:36;97743.02;;;1.39;67.86
60267;BME280;46125;61.360;-149.532;2022-10-16T12:54:13;97743.25;;;0.93;69.16
60267;BME280;46125;61.360;-149.532;2022-10-16T12:56:51;97738.88;;;1.79;67.28
60267;BME280;46125;61.360;-149.532;2022-10-16T12:59:31;97738.30;;;2.46;64.51
60267;BME280;46125;61.360;-149.532;2022-10-16T13:02:18;97740.08;;;2.79;63.52
60267;BME280;46125;61.360;-149.532;2022-10-16T13:05:02;97740.85;;;1.47;67.11
60267;BME280;46125;61.360;-149.532;2022-10-16T13:07:48;97733.67;;;1.73;66.69